createdAt,value
2018-12-29T00:01:16.029Z,6.02
2018-12-29T00:04:03.800Z,6.08
2018-12-29T00:06:32.288Z,6.12
2018-12-29T00:09:00.769Z,6.20
2018-12-29T00:11:29.260Z,6.29
2018-12-29T00:14:17.080Z,6.32
2018-12-29T00:16:45.580Z,6.27
2018-12-29T00:19:14.059Z,5.84
2018-12-29T00:22:01.697Z,5.97
2018-12-29T00:24:49.423Z,6.08
2018-12-29T00:27:37.246Z,6.16
2018-12-29T00:30:45.643Z,6.08
2018-12-29T00:33:33.400Z,6.03
2018-12-29T00:36:21.141Z,6.03
2018-12-29T00:38:49.623Z,5.84
2018-12-29T00:41:18.115Z,5.87
2018-12-29T00:43:46.605Z,5.96
2018-12-29T00:46:15.094Z,6.00
2018-12-29T00:48:43.577Z,5.97
2018-12-29T00:51:31.183Z,6.06
2018-12-29T00:57:06.225Z,5.80
2018-12-29T00:59:54.002Z,5.85
2018-12-29T01:02:41.566Z,5.81
2018-12-29T01:05:29.163Z,5.84
2018-12-29T01:07:57.655Z,5.91
2018-12-29T01:13:52.040Z,5.89
2018-12-29T01:16:39.778Z,5.89
2018-12-29T01:19:08.260Z,5.92
2018-12-29T01:21:36.747Z,5.92
2018-12-29T01:24:24.475Z,5.94
2018-12-29T01:26:52.962Z,6.03
2018-12-29T01:29:40.686Z,5.95
2018-12-29T01:32:28.424Z,6.12
2018-12-29T01:34:56.914Z,6.21
2018-12-29T01:37:44.511Z,6.20
2018-12-29T01:40:12.994Z,6.22
2018-12-29T01:43:00.731Z,6.12
2018-12-29T01:45:29.210Z,6.21
2018-12-29T01:48:10.398Z,6.08
2018-12-29T01:50:38.876Z,6.04
2018-12-29T01:56:00.171Z,6.12
2018-12-29T01:58:28.665Z,6.00
2018-12-29T02:01:16.498Z,6.22
2018-12-29T02:06:57.900Z,6.20
2018-12-29T02:09:45.511Z,6.36
2018-12-29T02:12:14.002Z,6.10
2018-12-29T02:14:42.482Z,5.95
2018-12-29T02:17:10.968Z,5.86
2018-12-29T02:22:14.135Z,6.01
2018-12-29T02:24:42.617Z,5.88
2018-12-29T02:27:30.352Z,5.86
2018-12-29T02:29:58.832Z,6.12
2018-12-29T02:32:27.320Z,6.17
2018-12-29T02:35:15.053Z,6.02
2018-12-29T02:37:43.553Z,6.15
2018-12-29T02:40:12.031Z,6.35
2018-12-29T02:42:40.520Z,6.31
2018-12-29T02:45:33.160Z,6.23
2018-12-29T02:47:58.475Z,6.21
2018-12-29T02:50:46.203Z,6.17
2018-12-29T02:53:14.696Z,6.25
2018-12-29T02:56:02.297Z,6.25
2018-12-29T02:58:50.030Z,5.91
2018-12-29T03:01:37.626Z,6.26
2018-12-29T03:04:06.116Z,6.16
2018-12-29T03:06:34.597Z,5.97
2018-12-29T03:09:22.332Z,6.13
2018-12-29T03:12:09.932Z,6.21
2018-12-29T03:14:57.536Z,6.12
2018-12-29T03:20:19.282Z,6.31
2018-12-29T03:22:47.796Z,6.12
2018-12-29T03:25:35.392Z,6.05
2018-12-29T03:28:22.996Z,6.05
2018-12-29T03:31:10.653Z,5.90
2018-12-29T03:33:58.327Z,5.97
2018-12-29T03:36:26.809Z,6.20
2018-12-29T03:39:14.547Z,6.22
2018-12-29T03:42:02.278Z,6.36
2018-12-29T03:44:30.771Z,6.34
2018-12-29T03:46:59.250Z,6.27
2018-12-29T03:49:27.733Z,6.24
2018-12-29T03:52:15.462Z,6.07
2018-12-29T03:54:43.953Z,6.24
2018-12-29T03:57:31.690Z,6.41
2018-12-29T04:00:19.283Z,6.24
2018-12-29T04:02:47.769Z,6.28
2018-12-29T04:05:16.255Z,6.19
2018-12-29T04:07:44.735Z,6.20
2018-12-29T04:10:53.141Z,6.25
2018-12-29T04:13:40.965Z,6.21
2018-12-29T04:16:09.453Z,6.15
2018-12-29T04:18:37.939Z,6.17
2018-12-29T04:23:59.414Z,5.88
2018-12-29T04:26:27.899Z,6.01
2018-12-29T04:28:56.387Z,6.14
2018-12-29T04:31:44.116Z,6.08
2018-12-29T04:34:12.607Z,6.14
2018-12-29T04:37:00.194Z,6.10
2018-12-29T04:39:28.690Z,6.05
2018-12-29T04:42:16.414Z,6.10
2018-12-29T04:44:44.907Z,6.27
2018-12-29T04:47:13.387Z,6.18
2018-12-29T04:49:41.885Z,6.41
2018-12-29T04:52:10.362Z,6.46
2018-12-29T04:54:58.099Z,6.67
2018-12-29T04:57:45.828Z,6.59
2018-12-29T05:00:33.567Z,6.45
2018-12-29T05:03:02.047Z,6.50
2018-12-29T05:05:49.646Z,6.46
2018-12-29T05:08:37.244Z,6.52
2018-12-29T05:11:05.733Z,6.27
2018-12-29T05:13:34.216Z,6.41
2018-12-29T05:16:22.049Z,6.42
2018-12-29T05:18:50.527Z,6.48
2018-12-29T05:21:38.273Z,6.57
2018-12-29T05:24:06.750Z,6.58
2018-12-29T05:26:54.488Z,6.39
2018-12-29T05:29:42.268Z,6.40
2018-12-29T05:32:29.868Z,6.36
2018-12-29T05:34:58.365Z,6.48
2018-12-29T05:37:46.094Z,6.36
2018-12-29T05:40:33.830Z,6.52
2018-12-29T05:43:02.310Z,6.37
2018-12-29T05:45:30.804Z,6.36
2018-12-29T05:47:59.273Z,6.39
2018-12-29T05:50:47.105Z,6.43
2018-12-29T05:53:15.588Z,6.37
2018-12-29T05:56:03.337Z,6.42
2018-12-29T06:04:31.451Z,6.42
2018-12-29T06:07:19.196Z,6.49
2018-12-29T06:09:47.673Z,6.44
2018-12-29T06:12:35.286Z,6.31
2018-12-29T06:17:58.372Z,6.36
2018-12-29T06:20:46.110Z,6.38
2018-12-29T06:23:33.703Z,6.33
2018-12-29T06:26:02.198Z,6.44
2018-12-29T06:28:30.680Z,6.79
2018-12-29T06:31:18.296Z,6.83
2018-12-29T06:34:06.018Z,6.80
2018-12-29T06:37:14.427Z,6.80
2018-12-29T06:40:02.156Z,6.86
2018-12-29T06:42:30.656Z,6.86
2018-12-29T06:47:46.587Z,6.85
2018-12-29T06:50:15.073Z,6.83
2018-12-29T06:52:43.563Z,6.71
2018-12-29T06:55:31.327Z,6.78
2018-12-29T06:57:59.815Z,6.63
2018-12-29T07:00:28.310Z,6.77
2018-12-29T07:03:16.035Z,6.69
2018-12-29T07:05:44.877Z,6.63
2018-12-29T07:08:32.695Z,6.61
2018-12-29T07:11:20.437Z,6.61
2018-12-29T07:14:08.168Z,6.54
2018-12-29T07:16:42.168Z,6.63
2018-12-29T07:19:26.117Z,6.73
2018-12-29T07:21:54.614Z,6.75
2018-12-29T07:24:42.340Z,6.91
2018-12-29T07:27:29.948Z,6.98
2018-12-29T07:29:58.435Z,6.74
2018-12-29T07:32:26.928Z,6.90
2018-12-29T07:34:55.490Z,6.88
2018-12-29T07:37:23.986Z,6.91
2018-12-29T07:39:52.467Z,6.96
2018-12-29T07:42:20.961Z,6.98
2018-12-29T07:44:49.445Z,7.07
2018-12-29T07:47:37.058Z,7.17
2018-12-29T07:50:45.448Z,7.16
2018-12-29T07:56:06.692Z,7.07
2018-12-29T07:58:35.183Z,7.22
2018-12-29T08:04:16.559Z,7.25
2018-12-29T08:06:45.058Z,7.01
2018-12-29T08:09:32.657Z,6.89
2018-12-29T08:12:01.161Z,6.92
2018-12-29T08:14:29.636Z,7.04
2018-12-29T08:16:58.133Z,7.14
2018-12-29T08:19:26.615Z,7.15
2018-12-29T08:21:55.111Z,7.15
2018-12-29T08:27:11.044Z,7.18
2018-12-29T08:29:58.645Z,7.04
2018-12-29T08:32:27.143Z,7.05
2018-12-29T08:34:55.629Z,7.10
2018-12-29T08:37:24.122Z,7.07
2018-12-29T08:39:52.603Z,6.89
2018-12-29T08:44:55.469Z,6.96
2018-12-29T08:47:43.076Z,7.04
2018-12-29T08:50:13.262Z,7.02
2018-12-29T08:52:41.778Z,7.00
2018-12-29T08:55:30.081Z,6.96
2018-12-29T08:57:59.732Z,6.94
2018-12-29T09:00:47.329Z,6.96
2018-12-29T09:03:15.837Z,6.93
2018-12-29T09:05:44.320Z,6.87
2018-12-29T09:08:32.061Z,7.03
2018-12-29T09:11:19.661Z,7.03
2018-12-29T09:14:07.403Z,7.05
2018-12-29T09:16:55.006Z,7.13
2018-12-29T09:19:27.244Z,6.99
2018-12-29T09:21:53.707Z,6.99
2018-12-29T09:24:22.213Z,7.08
2018-12-29T09:27:09.945Z,7.35
2018-12-29T09:29:57.559Z,7.08
2018-12-29T09:32:45.388Z,7.30
2018-12-29T09:35:32.989Z,7.23
2018-12-29T09:38:01.784Z,7.20
2018-12-29T09:40:30.288Z,7.19
2018-12-29T09:43:18.017Z,7.05
2018-12-29T09:45:46.506Z,6.85
2018-12-29T09:50:49.441Z,7.11
2018-12-29T09:53:37.189Z,7.17
2018-12-29T09:56:05.669Z,7.15
2018-12-29T09:58:34.166Z,7.20
2018-12-29T10:01:21.898Z,7.43
2018-12-29T10:04:09.506Z,7.36
2018-12-29T10:06:57.104Z,7.14
2018-12-29T10:09:25.595Z,7.30
2018-12-29T10:12:13.188Z,7.58
2018-12-29T10:14:41.681Z,7.61
2018-12-29T10:17:29.409Z,7.46
2018-12-29T10:19:57.904Z,7.69
2018-12-29T10:22:45.503Z,7.37
2018-12-29T10:25:33.110Z,7.48
2018-12-29T10:28:20.950Z,7.49
2018-12-29T10:30:49.440Z,7.44
2018-12-29T10:33:17.929Z,7.47
2018-12-29T10:38:53.106Z,7.60
2018-12-29T10:41:21.588Z,7.68
2018-12-29T10:43:50.074Z,7.74
2018-12-29T10:46:37.803Z,7.70
2018-12-29T10:49:06.295Z,7.70
2018-12-29T10:51:34.770Z,7.59
2018-12-29T10:54:22.601Z,7.59
2018-12-29T10:56:51.083Z,7.76
2018-12-29T10:59:19.570Z,7.67
2018-12-29T11:01:48.051Z,7.80
2018-12-29T11:07:09.703Z,7.96
2018-12-29T11:09:38.195Z,7.78
2018-12-29T11:12:25.795Z,7.62
2018-12-29T11:14:54.314Z,7.80
2018-12-29T11:17:42.434Z,7.95
2018-12-29T11:20:12.275Z,8.06
2018-12-29T11:22:40.809Z,8.10
2018-12-29T11:25:09.317Z,8.10
2018-12-29T11:27:56.978Z,8.12
2018-12-29T11:30:25.559Z,8.17
2018-12-29T11:32:54.092Z,8.13
2018-12-29T11:35:41.926Z,7.90
2018-12-29T11:38:29.672Z,7.91
2018-12-29T11:40:58.192Z,7.77
2018-12-29T11:46:34.896Z,7.57
2018-12-29T11:49:03.414Z,7.46
2018-12-29T11:51:51.051Z,7.46
2018-12-29T11:54:19.553Z,7.52
2018-12-29T11:56:48.071Z,7.37
2018-12-29T11:59:16.590Z,7.35
2018-12-29T12:02:04.417Z,7.48
2018-12-29T12:04:52.055Z,7.47
2018-12-29T12:07:39.652Z,7.65
2018-12-29T12:10:08.164Z,7.74
2018-12-29T12:12:38.668Z,7.51
2018-12-29T12:15:47.086Z,7.52
2018-12-29T12:18:17.358Z,7.46
2018-12-29T12:21:04.923Z,7.61
2018-12-29T12:23:52.670Z,7.63
2018-12-29T12:26:21.193Z,7.65
2018-12-29T12:29:09.044Z,7.67
2018-12-29T12:31:58.401Z,7.49
2018-12-29T12:34:26.918Z,7.63
2018-12-29T12:36:55.412Z,7.62
2018-12-29T12:39:43.017Z,7.73
2018-12-29T12:42:11.515Z,7.69
2018-12-29T12:44:40.004Z,7.70
2018-12-29T12:47:10.238Z,7.74
2018-12-29T12:49:38.855Z,7.67
2018-12-29T12:52:07.338Z,7.75
2018-12-29T12:54:35.820Z,7.80
2018-12-29T12:57:25.286Z,7.81
2018-12-29T12:59:55.572Z,7.74
2018-12-29T13:02:25.815Z,7.65
2018-12-29T13:04:54.299Z,7.82
2018-12-29T13:07:41.955Z,7.87
2018-12-29T13:10:29.684Z,7.95
2018-12-29T13:12:58.182Z,7.78
2018-12-29T13:15:26.704Z,7.74
2018-12-29T13:17:55.187Z,7.77
2018-12-29T13:20:42.797Z,7.89
2018-12-29T13:23:11.308Z,7.89
2018-12-29T13:25:58.910Z,7.77
2018-12-29T13:28:46.518Z,7.82
2018-12-29T13:31:15.012Z,7.74
2018-12-29T13:33:43.510Z,7.83
2018-12-29T13:36:33.003Z,7.87
2018-12-29T13:39:01.504Z,7.89
2018-12-29T13:41:30.004Z,7.94
2018-12-29T13:44:17.765Z,7.91
2018-12-29T13:46:46.298Z,7.94
2018-12-29T13:49:14.785Z,7.86
2018-12-29T13:51:43.270Z,7.80
2018-12-29T13:57:01.051Z,7.91
2018-12-29T13:59:29.667Z,7.78
2018-12-29T14:02:24.634Z,7.58
2018-12-29T14:04:53.115Z,7.63
2018-12-29T14:07:40.751Z,7.67
2018-12-29T14:10:28.359Z,7.69
2018-12-29T14:12:56.861Z,7.59
2018-12-29T14:15:26.442Z,7.50
2018-12-29T14:17:55.623Z,7.48
2018-12-29T14:20:24.135Z,7.55
2018-12-29T14:22:52.637Z,7.55
2018-12-29T14:25:40.410Z,7.52
2018-12-29T14:28:28.215Z,7.46
2018-12-29T14:30:56.742Z,7.47
2018-12-29T14:33:44.568Z,7.56
2018-12-29T14:36:13.081Z,7.48
2018-12-29T14:39:00.707Z,7.49
2018-12-29T14:44:03.163Z,7.71
2018-12-29T14:46:50.816Z,7.53
2018-12-29T14:49:19.333Z,7.44
2018-12-29T14:51:48.099Z,7.51
2018-12-29T14:54:35.850Z,7.51
2018-12-29T14:57:04.463Z,7.52
2018-12-29T14:59:33.269Z,7.35
2018-12-29T15:04:36.304Z,7.32
2018-12-29T15:07:04.900Z,7.60
2018-12-29T15:09:33.411Z,7.53
2018-12-29T15:12:01.972Z,7.59
2018-12-29T15:14:49.667Z,7.54
2018-12-29T15:17:18.191Z,7.36
2018-12-29T15:19:46.696Z,7.24
2018-12-29T15:22:34.614Z,7.20
2018-12-29T15:25:22.484Z,7.17
2018-12-29T15:27:52.776Z,7.10
2018-12-29T15:30:21.281Z,7.13
2018-12-29T15:33:08.928Z,7.12
2018-12-29T15:35:56.772Z,7.19
2018-12-29T15:38:25.300Z,7.05
2018-12-29T15:41:14.610Z,6.90
2018-12-29T15:43:43.094Z,6.96
2018-12-29T15:46:11.602Z,7.05
2018-12-29T15:48:40.150Z,7.01
2018-12-29T15:51:08.674Z,7.10
2018-12-29T15:53:37.199Z,6.95
2018-12-29T15:56:24.855Z,6.93
2018-12-29T15:58:53.368Z,7.03
2018-12-29T16:01:23.578Z,7.09
2018-12-29T16:03:52.106Z,7.03
2018-12-29T16:06:20.622Z,7.02
2018-12-29T16:08:49.170Z,6.96
2018-12-29T16:11:25.998Z,6.97
2018-12-29T16:13:49.624Z,6.96
2018-12-29T16:16:18.153Z,6.97
2018-12-29T16:19:05.994Z,6.90
2018-12-29T16:21:34.546Z,6.90
2018-12-29T16:24:03.072Z,6.96
2018-12-29T16:26:50.720Z,7.04
2018-12-29T16:29:19.227Z,6.92
2018-12-29T16:31:47.729Z,6.86
2018-12-29T16:34:37.190Z,6.92
2018-12-29T16:37:24.802Z,7.14
2018-12-29T16:39:53.376Z,6.98
2018-12-29T16:42:42.815Z,6.89
2018-12-29T16:45:11.370Z,7.12
2018-12-29T16:47:39.911Z,6.94
2018-12-29T16:50:48.307Z,7.14
2018-12-29T16:53:36.046Z,7.05
2018-12-29T16:56:04.579Z,7.23
2018-12-29T16:58:33.124Z,7.41
2018-12-29T17:01:20.799Z,7.37
2018-12-29T17:04:08.813Z,7.52
2018-12-29T17:06:37.625Z,7.47
2018-12-29T17:09:46.074Z,7.27
2018-12-29T17:12:36.950Z,7.22
2018-12-29T17:15:45.848Z,7.24
2018-12-29T17:18:16.161Z,7.33
2018-12-29T17:20:44.721Z,7.35
2018-12-29T17:23:32.435Z,7.33
2018-12-29T17:26:01.041Z,7.30
2018-12-29T17:28:31.291Z,7.29
2018-12-29T17:30:59.837Z,7.39
2018-12-29T17:33:28.355Z,7.37
2018-12-29T17:36:16.152Z,7.34
2018-12-29T17:39:04.485Z,7.38
2018-12-29T17:41:33.008Z,7.36
2018-12-29T17:44:01.518Z,7.33
2018-12-29T17:46:31.773Z,7.32
2018-12-29T17:49:00.318Z,7.30
2018-12-29T17:51:47.933Z,7.53
2018-12-29T17:54:16.438Z,7.53
2018-12-29T17:56:45.251Z,7.59
2018-12-29T17:59:32.982Z,7.72
2018-12-29T18:04:50.617Z,7.65
2018-12-29T18:07:20.900Z,7.69
2018-12-29T18:10:08.514Z,7.64
2018-12-29T18:12:37.034Z,7.71
2018-12-29T18:15:45.477Z,7.68
2018-12-29T18:18:33.191Z,7.67
2018-12-29T18:21:01.737Z,7.56
2018-12-29T18:23:31.983Z,7.61
2018-12-29T18:26:00.487Z,7.71
2018-12-29T18:28:29.374Z,7.61
2018-12-29T18:30:59.243Z,7.69
2018-12-29T18:33:47.048Z,7.67
2018-12-29T18:36:15.571Z,7.79
2018-12-29T18:38:45.819Z,7.94
2018-12-29T18:41:14.346Z,7.98
2018-12-29T18:44:02.068Z,7.96
2018-12-29T18:46:30.572Z,8.03
2018-12-29T18:48:59.109Z,7.96
2018-12-29T18:51:27.649Z,7.95
2018-12-29T18:54:15.471Z,7.94
2018-12-29T18:57:03.340Z,7.76
2018-12-29T18:59:31.844Z,7.88
2018-12-29T19:02:00.338Z,7.94
2018-12-29T19:04:28.852Z,8.08
2018-12-29T19:06:57.410Z,8.03
2018-12-29T19:09:25.933Z,8.08
2018-12-29T19:11:54.535Z,8.15
2018-12-29T19:14:24.748Z,8.11
2018-12-29T19:16:55.001Z,8.17
2018-12-29T19:19:25.233Z,8.22
2018-12-29T19:21:53.771Z,8.18
2018-12-29T19:24:41.546Z,8.18
2018-12-29T19:27:10.153Z,8.27
2018-12-29T19:29:40.370Z,8.18
2018-12-29T19:32:10.595Z,8.32
2018-12-29T19:34:40.814Z,8.17
2018-12-29T19:37:11.067Z,8.25
2018-12-29T19:40:00.429Z,8.21
2018-12-29T19:42:29.183Z,8.21
2018-12-29T19:45:16.827Z,8.13
2018-12-29T19:47:45.787Z,8.08
2018-12-29T19:50:16.132Z,8.12
2018-12-29T19:52:44.737Z,8.09
2018-12-29T19:55:32.505Z,8.24
2018-12-29T19:58:00.998Z,8.24
2018-12-29T20:00:50.640Z,8.24
2018-12-29T20:03:21.009Z,8.26
2018-12-29T20:05:51.241Z,8.13
2018-12-29T20:08:19.746Z,8.11
2018-12-29T20:10:49.980Z,8.13
2018-12-29T20:13:18.494Z,8.15
2018-12-29T20:15:47.030Z,8.03
2018-12-29T20:18:34.749Z,8.02
2018-12-29T20:21:03.282Z,8.03
2018-12-29T20:23:31.777Z,8.05
2018-12-29T20:26:00.308Z,8.08
2018-12-29T20:28:47.970Z,8.03
2018-12-29T20:31:16.490Z,8.00
2018-12-29T20:33:44.984Z,7.89
2018-12-29T20:36:13.511Z,7.83
2018-12-29T20:39:01.244Z,7.77
2018-12-29T20:41:48.977Z,7.75
2018-12-29T20:47:04.911Z,7.61
2018-12-29T20:52:20.846Z,7.61
2018-12-29T20:54:49.335Z,7.53
2018-12-29T20:57:17.883Z,7.46
2018-12-29T20:59:46.411Z,7.44
2018-12-29T21:02:14.963Z,7.34
2018-12-29T21:05:02.593Z,7.32
2018-12-29T21:07:31.131Z,7.27
2018-12-29T21:09:59.656Z,7.21
2018-12-29T21:12:28.165Z,7.30
2018-12-29T21:17:44.216Z,7.24
2018-12-29T21:20:17.372Z,7.17
2018-12-29T21:22:43.019Z,7.28
2018-12-29T21:27:59.058Z,7.30
2018-12-29T21:30:27.693Z,7.29
2018-12-29T21:33:15.461Z,7.32
2018-12-29T21:35:45.711Z,7.26
2018-12-29T21:38:33.401Z,7.24
2018-12-29T21:41:21.065Z,7.27
2018-12-29T21:44:08.777Z,7.23
2018-12-29T21:46:56.431Z,7.16
2018-12-29T21:49:25.058Z,7.13
2018-12-29T21:51:53.569Z,7.20
2018-12-29T21:54:22.071Z,7.17
2018-12-29T21:56:50.613Z,7.24
2018-12-29T21:59:19.107Z,7.31
2018-12-29T22:02:06.776Z,7.23
2018-12-29T22:04:54.371Z,7.30
2018-12-29T22:07:22.861Z,7.31
2018-12-29T22:09:51.414Z,7.28
2018-12-29T22:12:39.271Z,7.27
2018-12-29T22:17:56.880Z,7.25
2018-12-29T22:20:44.723Z,7.27
2018-12-29T22:23:32.643Z,7.32
2018-12-29T22:26:01.257Z,7.28
2018-12-29T22:28:48.896Z,7.25
2018-12-29T22:31:17.367Z,7.32
2018-12-29T22:33:47.587Z,7.37
2018-12-29T22:36:16.085Z,7.34
2018-12-29T22:39:24.599Z,7.39
2018-12-29T22:41:53.131Z,7.39
2018-12-29T22:44:21.639Z,7.34
2018-12-29T22:46:50.170Z,7.30
2018-12-29T22:49:37.930Z,7.25
2018-12-29T22:52:25.793Z,7.27
2018-12-29T22:55:13.415Z,7.31
2018-12-29T22:57:41.933Z,7.43
2018-12-29T23:00:50.428Z,7.43
2018-12-29T23:03:18.998Z,7.40
2018-12-29T23:05:47.556Z,7.44
2018-12-29T23:08:16.087Z,7.41
2018-12-29T23:10:44.599Z,7.43
2018-12-29T23:13:13.132Z,7.43
2018-12-29T23:15:41.802Z,7.43
2018-12-29T23:18:29.433Z,7.47
2018-12-29T23:20:57.940Z,7.58
2018-12-29T23:23:26.513Z,7.41
2018-12-29T23:25:56.763Z,7.42
2018-12-29T23:28:44.595Z,7.46
2018-12-29T23:34:00.543Z,7.55
2018-12-29T23:36:29.091Z,7.45
2018-12-29T23:38:57.644Z,7.46
2018-12-29T23:44:13.608Z,7.56
2018-12-29T23:46:42.190Z,7.61
2018-12-29T23:49:29.998Z,7.62
2018-12-29T23:52:00.266Z,7.65
2018-12-29T23:54:28.879Z,7.66
2018-12-29T23:56:59.162Z,7.69
2018-12-29T23:59:27.703Z,7.66
